Farnham, Ohio
Current Conditions -  °F | °C
As of 6:53 PM on Monday 22 Dec 2014 (Local Time) from KHZY Reporting Station
Clear Clear  
Wind Chill: 27°   Ceiling: Unl
Heat Index: 35°   Visibility: 10mi
Dew Point: 27°   Wind: 10mph
Humidity: 72%   Direction: 130°SE
Pressure: 29.98"   Gusts: NA
Location:  41.8949°N, 80.5816°W
Report Text: KHZY 222353Z AUTO 13009KT 10SM CLR 02/M03 A2998 RMK AO2 SLP161 T00171028 10050 20017 58008
Loading
Personal Weather Stations






























Interactive Weather Map New forecast layout! Learn more

10-Day Weather Forecast

Advertisements
Track Severe Weather on mobile